Météo Nord-Pas-de-Calais   La météo au plus près de chez vous

Station météorologique

Observations météo à Saulces-Champenoises (08401)

08401001 147 m Dernier relevé à 18:12
23°C
Humidité 43 % Vent 5 km/h

Journée consultée

Mardi 1 Septembre 2026

Synthèse de la journée

Périodes de référence en UTC

Température maximale

23.6°C

à 15:42

06h 06h

Température minimale

11.8°C

à 05:24

18h 18h

Rafale maximale

34 km/h

à 13:54

00h 00h

Précipitations

0 mm

Cumul quotidien

06h 06h

Graphiques de la journée

Heure locale Réduire

Données détaillées

Relevés météo

Pas de 6 minutes Afficher les relevés infra-horaires
Relevés météo détaillés à Saulces-Champenoises pour le Mardi 1 Septembre 2026
Heure Température °C Point de rosée °C Humidité % Vent moyen (raf.), km/h Précipitations mm
18:12 23 °C 12.3 °C 51 % 13 km/h (22 km/h) 0 mm0 mm
18:06 22.4 °C 9.9 °C 45 % 13 km/h (18 km/h) 0 mm0 mm
18:00 22.7 °C 10.8 °C 47 % 8 km/h (16 km/h) 0 mm0 mm
17:54 22.6 °C 9.7 °C 44 % 9 km/h (18 km/h) 0 mm0 mm
17:48 23 °C 10.1 °C 44 % 6 km/h (12 km/h) 0 mm0 mm
17:42 23.1 °C 9.8 °C 43 % 6 km/h (14 km/h) 0 mm0 mm
17:36 22.9 °C 10.3 °C 45 % 11 km/h (18 km/h) 0 mm0 mm
17:30 22.7 °C 10.2 °C 45 % 13 km/h (19 km/h) 0 mm0 mm
17:24 22.8 °C 10.6 °C 46 % 12 km/h (19 km/h) 0 mm0 mm
17:18 23.1 °C 10.5 °C 45 % 7 km/h (17 km/h) 0 mm0 mm
17:12 23.1 °C 9.8 °C 43 % 5 km/h (10 km/h) 0 mm0 mm
17:06 23.5 °C 11.2 °C 46 % 9 km/h (18 km/h) 0 mm0 mm
17:00 22.9 °C 10.7 °C 46 % 13 km/h (21 km/h) 0 mm0 mm
16:54 23 °C 11.1 °C 47 % 10 km/h (17 km/h) 0 mm0 mm
16:48 23.1 °C 10.8 °C 46 % 11 km/h (21 km/h) 0 mm0 mm
16:42 22.5 °C 10.6 °C 47 % 13 km/h (21 km/h) 0 mm0 mm
16:36 22.4 °C 10.8 °C 48 % 15 km/h (26 km/h) 0 mm0 mm
16:30 22.4 °C 9.5 °C 44 % 14 km/h (23 km/h) 0 mm0 mm
16:24 22.8 °C 10.6 °C 46 % 9 km/h (19 km/h) 0 mm0 mm
16:18 22.9 °C 10.7 °C 46 % 13 km/h (26 km/h) 0 mm0 mm
16:12 22.7 °C 10.8 °C 47 % 15 km/h (26 km/h) 0 mm0 mm
16:06 22.9 °C 11 °C 47 % 13 km/h (25 km/h) 0 mm0 mm
16:00 22.9 °C 11 °C 47 % 10 km/h (21 km/h) 0 mm0 mm
15:54 21.7 °C 10.5 °C 49 % 14 km/h (26 km/h) 0 mm0 mm
15:48 22.6 °C 10.1 °C 45 % 12 km/h (23 km/h) 0 mm0 mm
15:42 23.6 °C 11.6 °C 47 % 9 km/h (18 km/h) 0 mm0 mm
15:36 23 °C 12.3 °C 51 % 14 km/h (23 km/h) 0 mm0 mm
15:30 22.5 °C 10.3 °C 46 % 17 km/h (23 km/h) 0 mm0 mm
15:24 22.6 °C 11.3 °C 49 % 15 km/h (24 km/h) 0 mm0 mm
15:18 23.1 °C 11.8 °C 49 % 14 km/h (22 km/h) 0 mm0 mm
15:12 22.5 °C 10 °C 45 % 15 km/h (26 km/h) 0 mm0 mm
15:06 22.8 °C 11.2 °C 48 % 15 km/h (25 km/h) 0 mm0 mm
15:00 22.4 °C 10.8 °C 48 % 18 km/h (25 km/h) 0 mm0 mm
14:54 22.4 °C 11.8 °C 51 % 15 km/h (23 km/h) 0 mm0 mm
14:48 22 °C 11.7 °C 52 % 14 km/h (24 km/h) 0 mm0 mm
14:42 21.2 °C 11.2 °C 53 % 15 km/h (24 km/h) 0 mm0 mm
14:36 21.6 °C 12.2 °C 55 % 15 km/h (24 km/h) 0 mm0 mm
14:30 22.6 °C 13.6 °C 57 % 14 km/h (24 km/h) 0 mm0 mm
14:24 22.4 °C 12.6 °C 54 % 15 km/h (25 km/h) 0 mm0 mm
14:18 22.5 °C 12.4 °C 53 % 17 km/h (28 km/h) 0 mm0 mm
14:12 22 °C 11.7 °C 52 % 18 km/h (28 km/h) 0 mm0 mm
14:06 21.6 °C 11.6 °C 53 % 19 km/h (26 km/h) 0 mm0 mm
14:00 21.5 °C 12.1 °C 55 % 21 km/h (34 km/h) 0 mm0 mm
13:54 22.1 °C 12.1 °C 53 % 20 km/h (34 km/h) 0 mm0 mm
13:48 21.9 °C 11.3 °C 51 % 19 km/h (30 km/h) 0 mm0 mm
13:42 21.8 °C 12.4 °C 55 % 16 km/h (24 km/h) 0 mm0 mm
13:36 20.7 °C 11.9 °C 57 % 15 km/h (24 km/h) 0 mm0 mm
13:30 20.3 °C 11.8 °C 58 % 18 km/h (28 km/h) 0 mm0 mm
13:24 21 °C 12.2 °C 57 % 18 km/h (27 km/h) 0 mm0 mm
13:18 21.3 °C 12.4 °C 57 % 16 km/h (26 km/h) 0 mm0 mm
13:12 21.2 °C 11.8 °C 55 % 15 km/h (24 km/h) 0 mm0 mm
13:06 21.1 °C 11.7 °C 55 % 14 km/h (24 km/h) 0 mm0 mm
13:00 20.5 °C 13.2 °C 63 % 15 km/h (23 km/h) 0 mm0 mm
12:54 19.5 °C 11.8 °C 61 % 17 km/h (24 km/h) 0 mm0 mm
12:48 20 °C 12.7 °C 63 % 17 km/h (26 km/h) 0 mm0 mm
12:42 21.2 °C 13.4 °C 61 % 14 km/h (24 km/h) 0 mm0 mm
12:36 20.9 °C 13.1 °C 61 % 15 km/h (26 km/h) 0 mm0 mm
12:30 21 °C 12.7 °C 59 % 16 km/h (26 km/h) 0 mm0 mm
12:24 20.4 °C 12.1 °C 59 % 15 km/h (26 km/h) 0 mm0 mm
12:18 20.1 °C 12.1 °C 60 % 14 km/h (21 km/h) 0 mm0 mm
12:12 19.5 °C 12.3 °C 63 % 16 km/h (27 km/h) 0 mm0 mm
12:06 20.1 °C 13.5 °C 66 % 15 km/h (27 km/h) 0 mm0 mm
12:00 20 °C 13.5 °C 66 % 14 km/h (21 km/h) 0 mm0 mm
11:54 19.9 °C 13.8 °C 68 % 15 km/h (21 km/h) 0 mm0 mm
11:48 19.6 °C 12.8 °C 65 % 15 km/h (23 km/h) 0 mm0 mm
11:42 19.4 °C 14 °C 71 % 12 km/h (20 km/h) 0 mm0 mm
11:36 19.3 °C 13.7 °C 70 % 12 km/h (21 km/h) 0 mm0 mm
11:30 19.3 °C 13.7 °C 70 % 12 km/h (21 km/h) 0 mm0 mm
11:24 19 °C 14 °C 73 % 12 km/h (21 km/h) 0 mm0 mm
11:18 18.9 °C 13.5 °C 71 % 13 km/h (21 km/h) 0 mm0 mm
11:12 18.6 °C 13.9 °C 74 % 13 km/h (19 km/h) 0 mm0 mm
11:06 18.5 °C 14.2 °C 76 % 14 km/h (20 km/h) 0 mm0 mm
11:00 18.4 °C 14.1 °C 76 % 14 km/h (20 km/h) 0 mm0 mm
10:54 18.4 °C 14.3 °C 77 % 13 km/h (18 km/h) 0 mm0 mm
10:48 18.5 °C 15 °C 80 % 11 km/h (16 km/h) 0 mm0 mm
10:42 18.2 °C 15.3 °C 83 % 10 km/h (15 km/h) 0 mm0 mm
10:36 17.7 °C 14.6 °C 82 % 11 km/h (16 km/h) 0 mm0 mm
10:30 17.1 °C 14 °C 82 % 10 km/h (16 km/h) 0 mm0 mm
10:24 17.3 °C 14.2 °C 82 % 11 km/h (17 km/h) 0 mm0 mm
10:18 17.4 °C 14.7 °C 84 % 10 km/h (16 km/h) 0 mm0 mm
10:12 16.9 °C 14.4 °C 85 % 9 km/h (15 km/h) 0 mm0 mm
10:06 16.6 °C 14.2 °C 86 % 9 km/h (13 km/h) 0 mm0 mm
10:00 16.5 °C 14.1 °C 86 % 8 km/h (13 km/h) 0 mm0 mm
09:54 16.4 °C 14.4 °C 88 % 7 km/h (13 km/h) 0 mm0 mm
09:48 16.1 °C 14.1 °C 88 % 6 km/h (10 km/h) 0 mm0 mm
09:42 16 °C 14.4 °C 90 % 5 km/h (7 km/h) 0 mm0 mm
09:36 15.7 °C 14.1 °C 90 % 5 km/h (7 km/h) 0 mm0 mm
09:30 15.5 °C 13.9 °C 90 % 5 km/h (11 km/h) 0 mm0 mm
09:24 15.5 °C 13.7 °C 89 % 6 km/h (9 km/h) 0 mm0 mm
09:18 15.5 °C 13.9 °C 90 % 6 km/h (9 km/h) 0 mm0 mm
09:12 15.4 °C 13.9 °C 91 % 4 km/h (7 km/h) 0 mm0 mm
09:06 15.1 °C 14 °C 93 % 4 km/h (6 km/h) 0 mm0 mm
09:00 14.6 °C 13.5 °C 93 % 4 km/h (6 km/h) 0 mm0 mm
08:54 14.5 °C 13.5 °C 94 % 4 km/h (7 km/h) 0 mm0 mm
08:48 14.3 °C 13.3 °C 94 % 4 km/h (7 km/h) 0 mm0 mm
08:42 14.2 °C 13.4 °C 95 % 3 km/h (6 km/h) 0 mm0 mm
08:36 14 °C 13.2 °C 95 % 2 km/h (4 km/h) 0 mm0 mm
08:30 13.9 °C 13.3 °C 96 % 3 km/h (6 km/h) 0 mm0 mm
08:24 13.7 °C 13.1 °C 96 % 4 km/h (7 km/h) 0 mm0 mm
08:18 13.5 °C 12.9 °C 96 % 5 km/h (7 km/h) 0 mm0 mm
08:12 13.3 °C 12.7 °C 96 % 5 km/h (6 km/h) 0 mm0 mm
08:06 13.2 °C 12.6 °C 96 % 5 km/h (7 km/h) 0 mm0 mm
08:00 13.2 °C 12.6 °C 96 % 6 km/h (9 km/h) 0 mm0 mm
07:54 13.1 °C 12.5 °C 96 % 7 km/h (9 km/h) 0 mm0 mm
07:48 13 °C 12.4 °C 96 % 8 km/h (10 km/h) 0 mm0 mm
07:42 12.8 °C 12.2 °C 96 % 9 km/h (10 km/h) 0 mm0 mm
07:36 12.7 °C 12.1 °C 96 % 9 km/h (10 km/h) 0 mm0 mm
07:30 12.5 °C 11.7 °C 95 % 9 km/h (10 km/h) 0 mm0 mm
07:24 12.4 °C 11.6 °C 95 % 8 km/h (10 km/h) 0 mm0 mm
07:18 12.5 °C 11.6 °C 94 % 6 km/h (8 km/h) 0 mm0 mm
07:12 12.5 °C 11.6 °C 94 % 5 km/h (7 km/h) 0 mm0 mm
07:06 12.6 °C 11.7 °C 94 % 5 km/h (8 km/h) 0 mm0 mm
07:00 12.7 °C 11.9 °C 95 % 6 km/h (8 km/h) 0 mm0 mm
06:54 12.7 °C 11.8 °C 94 % 6 km/h (8 km/h) 0 mm0 mm
06:48 12.7 °C 11.9 °C 95 % 5 km/h (6 km/h) 0 mm0 mm
06:42 12.7 °C 11.9 °C 95 % 6 km/h (8 km/h) 0 mm0 mm
06:36 12.5 °C 11.7 °C 95 % 6 km/h (8 km/h) 0 mm0 mm
06:30 12.4 °C 11.5 °C 94 % 6 km/h (8 km/h) 0 mm0 mm
06:24 12.3 °C 11.2 °C 93 % 5 km/h (7 km/h) 0 mm0 mm
06:18 12.5 °C 11.6 °C 94 % 5 km/h (8 km/h) 0 mm0 mm
06:12 12.6 °C 11.7 °C 94 % 7 km/h (9 km/h) 0 mm0 mm
06:06 12.7 °C 11.9 °C 95 % 7 km/h (9 km/h) 0 mm0 mm
06:00 12.7 °C 12.1 °C 96 % 8 km/h (9 km/h) 0 mm0 mm
05:54 12.6 °C 12 °C 96 % 8 km/h (9 km/h) 0 mm0 mm
05:48 12.5 °C 11.9 °C 96 % 7 km/h (9 km/h) 0 mm0 mm
05:42 12.3 °C 11.8 °C 97 % 6 km/h (9 km/h) 0 mm0 mm
05:36 12.1 °C 11.5 °C 96 % 5 km/h (8 km/h) 0 mm0 mm
05:30 11.9 °C 11.3 °C 96 % 5 km/h (7 km/h) 0 mm0 mm
05:24 11.8 °C 11 °C 95 % 5 km/h (8 km/h) 0 mm0 mm
05:18 11.9 °C 11.1 °C 95 % 5 km/h (8 km/h) 0 mm0 mm
05:12 11.9 °C 11 °C 94 % 5 km/h (7 km/h) 0 mm0 mm
05:06 12 °C 11.1 °C 94 % 5 km/h (8 km/h) 0 mm0 mm
05:00 12.2 °C 11.3 °C 94 % 6 km/h (9 km/h) 0 mm0 mm
04:54 12.1 °C 11.2 °C 94 % 6 km/h (9 km/h) 0 mm0 mm
04:48 12.1 °C 11.2 °C 94 % 7 km/h (9 km/h) 0 mm0 mm
04:42 12.1 °C 11 °C 93 % 7 km/h (10 km/h) 0 mm0 mm
04:36 12.3 °C 11.4 °C 94 % 7 km/h (11 km/h) 0 mm0 mm
04:30 12.2 °C 11.4 °C 95 % 8 km/h (11 km/h) 0 mm0 mm
04:24 12.1 °C 11.3 °C 95 % 6 km/h (9 km/h) 0 mm0 mm
04:18 12.1 °C 11.2 °C 94 % 5 km/h (8 km/h) 0 mm0 mm
04:12 12 °C 11.1 °C 94 % 5 km/h (7 km/h) 0 mm0 mm
04:06 12.1 °C 11 °C 93 % 7 km/h (10 km/h) 0 mm0 mm
04:00 12.2 °C 11.1 °C 93 % 8 km/h (10 km/h) 0 mm0 mm
03:54 12.3 °C 11 °C 92 % 7 km/h (10 km/h) 0 mm0 mm
03:48 12.4 °C 11.3 °C 93 % 6 km/h (8 km/h) 0 mm0 mm
03:42 12.4 °C 11.1 °C 92 % 6 km/h (8 km/h) 0 mm0 mm
03:36 12.9 °C 12 °C 94 % 6 km/h (8 km/h) 0 mm0 mm
03:30 12.7 °C 11.8 °C 94 % 6 km/h (8 km/h) 0 mm0 mm
03:24 12.4 °C 11.3 °C 93 % 6 km/h (8 km/h) 0 mm0 mm
03:18 12.6 °C 11.3 °C 92 % 5 km/h (7 km/h) 0 mm0 mm
03:12 12.7 °C 11.4 °C 92 % 5 km/h (8 km/h) 0 mm0 mm
03:06 12.7 °C 11.4 °C 92 % 6 km/h (8 km/h) 0 mm0 mm
03:00 12.7 °C 11.3 °C 91 % 5 km/h (8 km/h) 0 mm0 mm
02:54 12.7 °C 11.3 °C 91 % 4 km/h (6 km/h) 0 mm0 mm
02:48 12.8 °C 11 °C 89 % 5 km/h (8 km/h) 0 mm0 mm
02:42 13.3 °C 11.4 °C 88 % 5 km/h (8 km/h) 0 mm0 mm
02:36 13.9 °C 11.8 °C 87 % 6 km/h (10 km/h) 0 mm0 mm
02:30 14.1 °C 12.1 °C 88 % 6 km/h (10 km/h) 0 mm0 mm
02:24 13.8 °C 12.2 °C 90 % 6 km/h (9 km/h) 0 mm0 mm
02:18 13.6 °C 11.8 °C 89 % 5 km/h (9 km/h) 0 mm0 mm
02:12 13.6 °C 11.8 °C 89 % 5 km/h (9 km/h) 0 mm0 mm
02:06 13.6 °C 11.8 °C 89 % 5 km/h (9 km/h) 0 mm0 mm
02:00 13.6 °C 11.5 °C 87 % 6 km/h (9 km/h) 0 mm0 mm
01:54 13.9 °C 11.8 °C 87 % 8 km/h (11 km/h) 0 mm0 mm
01:48 13.9 °C 11.9 °C 88 % 8 km/h (12 km/h) 0 mm0 mm
01:42 13.6 °C 11.8 °C 89 % 6 km/h (10 km/h) 0 mm0 mm
01:36 13.5 °C 11.2 °C 86 % 6 km/h (9 km/h) 0 mm0 mm
01:30 13.7 °C 11.2 °C 85 % 9 km/h (13 km/h) 0 mm0 mm
01:24 14.4 °C 11.9 °C 85 % 12 km/h (13 km/h) 0 mm0 mm
01:18 14.4 °C 12.1 °C 86 % 12 km/h (13 km/h) 0 mm0 mm
01:12 14.4 °C 12.1 °C 86 % 10 km/h (13 km/h) 0 mm0 mm
01:06 14.4 °C 12.1 °C 86 % 9 km/h (12 km/h) 0 mm0 mm
01:00 14.1 °C 12.1 °C 88 % 9 km/h (13 km/h) 0 mm0 mm
00:54 14.1 °C 12 °C 87 % 9 km/h (13 km/h) 0 mm0 mm
00:48 14.3 °C 12.2 °C 87 % 7 km/h (13 km/h) 0 mm0 mm
00:42 14.1 °C 12 °C 87 % 6 km/h (9 km/h) 0 mm0 mm
00:36 14.2 °C 11.9 °C 86 % 6 km/h (9 km/h) 0 mm0 mm
00:30 14.5 °C 12 °C 85 % 6 km/h (10 km/h) 0 mm0 mm
00:24 14.7 °C 12.2 °C 85 % 9 km/h (13 km/h) 0 mm0 mm
00:18 14.8 °C 12.3 °C 85 % 11 km/h (14 km/h) 0 mm0 mm
00:12 14.9 °C 12.2 °C 84 % 12 km/h (15 km/h) 0 mm0 mm
00:06 15.2 °C 12.5 °C 84 % 12 km/h (15 km/h) 0 mm0 mm
00:00 15.3 °C 12.6 °C 84 % 12 km/h (18 km/h) 0 mm0 mm

Données via Météo-France

Relevés météo à Saulces-Champenoises

Cette page rassemble les observations de la station de Saulces-Champenoises : température, humidité, vent, précipitations et pression atmosphérique. Les graphiques facilitent le suivi de la journée, tandis que le tableau donne accès aux mesures horaires et infra-horaires disponibles.

Pour replacer ces mesures dans leur contexte, consultez la climatologie de Saulces-Champenoises ainsi que ses normales et records. Retrouvez aussi la carte des observations météo en temps réel.